createdAt,value
2023-01-11T00:01:23.751Z,98419.72
2023-01-11T00:03:53.677Z,98410.22
2023-01-11T00:06:22.490Z,98402.63
2023-01-11T00:08:51.094Z,98405.09
2023-01-11T00:11:20.209Z,98409.22
2023-01-11T00:13:48.891Z,98400.50
2023-01-11T00:16:17.869Z,98402.19
2023-01-11T00:18:46.498Z,98398.63
2023-01-11T00:21:16.510Z,98399.47
2023-01-11T00:23:45.168Z,98406.28
2023-01-11T00:26:14.499Z,98406.91
2023-01-11T00:28:43.262Z,98400.13
2023-01-11T00:31:12.301Z,98388.97
2023-01-11T00:33:40.943Z,98389.84
2023-01-11T00:36:10.300Z,98382.03
2023-01-11T00:38:51.288Z,98377.03
2023-01-11T00:41:38.189Z,98375.34
2023-01-11T00:44:24.907Z,98373.28
2023-01-11T00:47:11.381Z,98364.69
2023-01-11T00:49:40.145Z,98366.25
2023-01-11T00:52:10.037Z,98354.19
2023-01-11T00:54:40.831Z,98345.50
2023-01-11T00:57:10.269Z,98357.41
2023-01-11T00:59:40.561Z,98349.47
2023-01-11T01:02:10.045Z,98350.25
2023-01-11T01:04:39.154Z,98355.28
2023-01-11T01:07:09.019Z,98337.25
2023-01-11T01:09:39.067Z,98325.88
2023-01-11T01:12:09.124Z,98334.34
2023-01-11T01:14:37.221Z,98333.53
2023-01-11T01:17:08.076Z,98342.53
2023-01-11T01:19:38.829Z,98327.88
2023-01-11T01:22:07.535Z,98328.50
2023-01-11T01:24:36.601Z,98332.06
2023-01-11T01:27:06.698Z,98339.03
2023-01-11T01:29:35.402Z,98337.03
2023-01-11T01:32:03.999Z,98328.28
2023-01-11T01:34:32.695Z,98331.50
2023-01-11T01:37:01.328Z,98340.78
2023-01-11T01:39:30.360Z,98336.44
2023-01-11T01:41:59.113Z,98323.53
2023-01-11T01:45:01.416Z,98325.94
2023-01-11T01:47:38.539Z,98318.28
2023-01-11T01:50:12.357Z,98314.97
2023-01-11T01:52:41.407Z,98312.34
2023-01-11T01:55:13.491Z,98313.13
2023-01-11T01:57:43.062Z,98306.31
2023-01-11T02:00:14.606Z,98312.22
2023-01-11T02:02:45.528Z,98301.97
2023-01-11T02:05:15.346Z,98290.25
2023-01-11T02:07:44.463Z,98296.28
2023-01-11T02:10:16.194Z,98302.06
2023-01-11T02:12:48.102Z,98295.47
2023-01-11T02:15:18.752Z,98280.81
2023-01-11T02:17:47.572Z,98277.34
2023-01-11T02:20:47.473Z,98277.44
2023-01-11T02:23:53.163Z,98269.78
2023-01-11T02:26:42.548Z,98274.75
2023-01-11T02:29:18.236Z,98259.25
2023-01-11T02:31:51.226Z,98253.03
2023-01-11T02:34:31.398Z,98245.53
2023-01-11T02:37:09.709Z,98262.69
2023-01-11T02:39:46.287Z,98253.16
2023-01-11T02:42:39.310Z,98257.22
2023-01-11T02:45:17.855Z,98249.25
2023-01-11T02:47:50.692Z,98260.34
2023-01-11T02:50:23.788Z,98271.22
2023-01-11T02:52:56.389Z,98265.13
2023-01-11T02:55:27.758Z,98256.53
2023-01-11T02:57:58.807Z,98259.94
2023-01-11T03:00:29.110Z,98246.94
2023-01-11T03:03:09.499Z,98244.25
2023-01-11T03:05:41.607Z,98246.03
2023-01-11T03:08:41.408Z,98257.19
2023-01-11T03:11:14.295Z,98234.53
2023-01-11T03:14:00.127Z,98244.72
2023-01-11T03:16:34.145Z,98235.22
2023-01-11T03:19:14.776Z,98246.22
2023-01-11T03:21:50.108Z,98256.34
2023-01-11T03:24:28.130Z,98246.78
2023-01-11T03:27:06.936Z,98244.13
2023-01-11T03:29:39.290Z,98245.72
2023-01-11T03:32:20.370Z,98249.84
2023-01-11T03:34:54.509Z,98239.47
2023-01-11T03:37:26.791Z,98240.44
2023-01-11T03:40:00.729Z,98237.66
2023-01-11T03:42:29.798Z,98251.31
2023-01-11T03:44:59.938Z,98244.44
2023-01-11T03:47:31.167Z,98225.44
2023-01-11T03:50:02.672Z,98221.03
2023-01-11T03:52:34.922Z,98213.19
2023-01-11T03:55:05.779Z,98225.09
2023-01-11T03:57:36.454Z,98219.84
2023-01-11T04:00:06.803Z,98213.84
2023-01-11T04:02:40.244Z,98212.88
2023-01-11T04:05:10.786Z,98202.59
2023-01-11T04:07:39.444Z,98189.00
2023-01-11T04:10:09.553Z,98198.09
2023-01-11T04:12:38.275Z,98196.56
2023-01-11T04:15:09.365Z,98189.69
2023-01-11T04:17:39.561Z,98181.94
2023-01-11T04:20:09.696Z,98191.38
2023-01-11T04:22:38.435Z,98186.22
2023-01-11T04:25:08.872Z,98199.19
2023-01-11T04:27:37.731Z,98174.25
2023-01-11T04:30:07.201Z,98176.78
2023-01-11T04:32:35.970Z,98181.81
2023-01-11T04:35:06.990Z,98185.00
2023-01-11T04:37:36.807Z,98181.66
2023-01-11T04:40:06.114Z,98181.66
2023-01-11T04:42:33.957Z,98200.63
2023-01-11T04:45:05.384Z,98189.34
2023-01-11T04:47:34.339Z,98193.66
2023-01-11T04:50:03.117Z,98196.22
2023-01-11T04:52:33.188Z,98187.69
2023-01-11T04:55:02.018Z,98175.88
2023-01-11T04:57:30.914Z,98166.38
2023-01-11T04:59:59.859Z,98163.03
2023-01-11T05:02:28.935Z,98163.03
2023-01-11T05:04:57.650Z,98170.00
2023-01-11T05:07:26.421Z,98167.22
2023-01-11T05:09:56.441Z,98168.28
2023-01-11T05:12:25.203Z,98181.94
2023-01-11T05:14:53.877Z,98176.78
2023-01-11T05:17:22.645Z,98176.16
2023-01-11T05:19:51.328Z,98171.03
2023-01-11T05:22:20.139Z,98169.41
2023-01-11T05:24:48.754Z,98168.44
2023-01-11T05:27:18.946Z,98159.97
2023-01-11T05:29:47.652Z,98155.97
2023-01-11T05:32:16.435Z,98160.09
2023-01-11T05:34:45.144Z,98150.72
2023-01-11T05:37:14.106Z,98150.84
2023-01-11T05:39:42.782Z,98152.66
2023-01-11T05:42:11.341Z,98160.47
2023-01-11T05:45:09.048Z,98163.94
2023-01-11T05:47:37.708Z,98164.00
2023-01-11T05:50:07.026Z,98161.44
2023-01-11T05:52:36.055Z,98158.94
2023-01-11T05:55:05.012Z,98151.22
2023-01-11T05:57:33.713Z,98152.13
2023-01-11T06:00:04.152Z,98147.84
2023-01-11T06:02:36.410Z,98137.59
2023-01-11T06:05:05.541Z,98139.03
2023-01-11T06:07:34.204Z,98136.72
2023-01-11T06:10:02.929Z,98124.88
2023-01-11T06:12:31.903Z,98126.81
2023-01-11T06:15:00.696Z,98107.09
2023-01-11T06:17:30.678Z,98108.09
2023-01-11T06:19:59.836Z,98095.25
2023-01-11T06:22:28.517Z,98095.06
2023-01-11T06:24:57.130Z,98094.06
2023-01-11T06:27:25.856Z,98102.81
2023-01-11T06:29:54.444Z,98096.84
2023-01-11T06:32:23.061Z,98097.63
2023-01-11T06:34:53.025Z,98107.78
2023-01-11T06:37:21.615Z,98097.50
2023-01-11T06:39:50.175Z,98090.75
2023-01-11T06:42:18.812Z,98092.41
2023-01-11T06:44:47.419Z,98094.34
2023-01-11T06:47:16.047Z,98096.84
2023-01-11T06:49:44.663Z,98100.25
2023-01-11T06:52:14.753Z,98095.88
2023-01-11T06:54:43.325Z,98088.25
2023-01-11T06:57:12.309Z,98090.88
2023-01-11T06:59:41.814Z,98093.44
2023-01-11T07:02:11.846Z,98096.91
2023-01-11T07:04:40.444Z,98100.31
2023-01-11T07:07:09.110Z,98102.06
2023-01-11T07:09:39.354Z,98100.25
2023-01-11T07:12:08.013Z,98100.91
2023-01-11T07:14:36.737Z,98091.38
2023-01-11T07:17:05.315Z,98091.34
2023-01-11T07:19:33.917Z,98086.31
2023-01-11T07:22:02.534Z,98087.84
2023-01-11T07:24:31.330Z,98075.53
2023-01-11T07:27:02.879Z,98073.16
2023-01-11T07:29:31.656Z,98083.69
2023-01-11T07:32:00.503Z,98087.22
2023-01-11T07:34:29.127Z,98091.47
2023-01-11T07:36:57.730Z,98087.94
2023-01-11T07:39:38.521Z,98085.28
2023-01-11T07:42:30.547Z,98085.88
2023-01-11T07:44:59.224Z,98078.09
2023-01-11T07:47:28.162Z,98099.09
2023-01-11T07:49:56.786Z,98092.06
2023-01-11T07:52:25.599Z,98092.75
2023-01-11T07:54:54.360Z,98098.47
2023-01-11T07:57:24.301Z,98089.69
2023-01-11T07:59:52.972Z,98086.31
2023-01-11T08:02:21.521Z,98086.19
2023-01-11T08:04:50.467Z,98088.22
2023-01-11T08:07:19.087Z,98089.81
2023-01-11T08:09:47.850Z,98092.94
2023-01-11T08:12:33.998Z,98084.34
2023-01-11T08:15:04.353Z,98091.72
2023-01-11T08:17:35.717Z,98107.97
2023-01-11T08:20:04.482Z,98104.34
2023-01-11T08:22:33.298Z,98103.34
2023-01-11T08:25:02.036Z,98100.66
2023-01-11T08:27:30.702Z,98107.41
2023-01-11T08:29:59.330Z,98104.03
2023-01-11T08:32:31.025Z,98099.56
2023-01-11T08:34:59.594Z,98093.28
2023-01-11T08:37:28.304Z,98094.19
2023-01-11T08:39:58.326Z,98094.19
2023-01-11T08:42:27.117Z,98096.41
2023-01-11T08:44:55.802Z,98091.97
2023-01-11T08:47:24.449Z,98085.16
2023-01-11T08:49:54.399Z,98079.69
2023-01-11T08:52:23.619Z,98097.69
2023-01-11T08:54:52.231Z,98102.53
2023-01-11T08:57:21.709Z,98096.94
2023-01-11T08:59:50.320Z,98096.75
2023-01-11T09:02:19.192Z,98096.88
2023-01-11T09:04:47.941Z,98093.47
2023-01-11T09:07:17.965Z,98084.06
2023-01-11T09:09:47.609Z,98088.34
2023-01-11T09:12:16.451Z,98088.47
2023-01-11T09:14:45.292Z,98088.59
2023-01-11T09:17:14.030Z,98087.88
2023-01-11T09:19:42.684Z,98094.66
2023-01-11T09:22:11.500Z,98081.81
2023-01-11T09:24:41.443Z,98088.75
2023-01-11T09:27:11.455Z,98077.56
2023-01-11T09:29:40.451Z,98080.88
2023-01-11T09:32:09.195Z,98083.47
2023-01-11T09:34:37.928Z,98077.50
2023-01-11T09:37:07.091Z,98084.25
2023-01-11T09:39:37.108Z,98081.66
2023-01-11T09:42:32.383Z,98083.03
2023-01-11T09:45:07.173Z,98076.06
2023-01-11T09:47:40.818Z,98076.91
2023-01-11T09:50:16.457Z,98081.22
2023-01-11T09:52:47.502Z,98075.31
2023-01-11T09:55:22.966Z,98082.03
2023-01-11T09:58:03.014Z,98079.56
2023-01-11T10:00:38.428Z,98083.78
2023-01-11T10:03:38.494Z,98080.03
2023-01-11T10:06:14.902Z,98073.44
2023-01-11T10:18:29.669Z,98063.13
2023-01-11T10:18:30.456Z,98065.81
2023-01-11T10:21:07.746Z,98063.88
2023-01-11T10:23:47.416Z,98062.09
2023-01-11T10:26:27.157Z,98061.94
2023-01-11T10:29:17.439Z,98070.13
2023-01-11T10:32:09.580Z,98060.16
2023-01-11T10:34:59.734Z,98076.06
2023-01-11T10:37:54.385Z,98061.59
2023-01-11T10:40:58.728Z,98056.13
2023-01-11T10:43:29.357Z,98053.16
2023-01-11T10:46:00.574Z,98050.50
2023-01-11T10:48:33.444Z,98052.81
2023-01-11T10:51:06.618Z,98058.66
2023-01-11T10:53:38.149Z,98049.03
2023-01-11T10:56:15.256Z,98050.88
2023-01-11T10:59:18.560Z,98057.28
2023-01-11T11:01:54.966Z,98052.94
2023-01-11T11:04:40.392Z,98058.94
2023-01-11T11:07:11.259Z,98060.69
2023-01-11T11:09:47.004Z,98054.53
2023-01-11T11:12:20.666Z,98056.78
2023-01-11T11:14:52.816Z,98048.88
2023-01-11T11:17:26.190Z,98048.88
2023-01-11T11:19:56.458Z,98053.06
2023-01-11T11:22:25.567Z,98046.06
2023-01-11T11:24:59.892Z,98025.44
2023-01-11T11:27:31.874Z,98033.94
2023-01-11T11:30:00.715Z,98041.56
2023-01-11T11:32:33.142Z,98032.09
2023-01-11T11:35:04.481Z,98028.78
2023-01-11T11:37:34.926Z,98026.34
2023-01-11T11:40:03.629Z,98021.19
2023-01-11T11:42:32.263Z,98024.53
2023-01-11T11:45:17.006Z,98021.63
2023-01-11T11:48:02.336Z,98031.00
2023-01-11T11:50:44.329Z,98019.03
2023-01-11T11:53:27.712Z,98031.09
2023-01-11T11:55:56.573Z,98017.97
2023-01-11T11:58:26.913Z,98030.28
2023-01-11T12:00:55.847Z,98018.31
2023-01-11T12:03:30.300Z,98013.31
2023-01-11T12:06:02.711Z,98012.31
2023-01-11T12:08:33.035Z,98014.97
2023-01-11T12:11:03.845Z,98007.31
2023-01-11T12:13:34.817Z,98014.81
2023-01-11T12:16:07.463Z,98017.53
2023-01-11T12:18:42.829Z,98011.66
2023-01-11T12:21:20.067Z,98006.66
2023-01-11T12:23:49.178Z,98017.69
2023-01-11T12:26:24.676Z,98016.03
2023-01-11T12:29:25.809Z,98010.22
2023-01-11T12:32:12.602Z,98003.97
2023-01-11T12:35:01.851Z,98009.28
2023-01-11T12:37:46.480Z,98005.81
2023-01-11T12:40:20.879Z,98010.16
2023-01-11T12:43:01.181Z,98010.16
2023-01-11T12:45:36.698Z,97999.66
2023-01-11T12:48:24.171Z,98006.31
2023-01-11T12:51:06.887Z,98003.00
2023-01-11T12:53:47.464Z,98014.97
2023-01-11T12:56:49.761Z,98011.47
2023-01-11T12:59:30.558Z,98020.94
2023-01-11T13:02:04.365Z,98020.13
2023-01-11T13:04:52.453Z,98028.94
2023-01-11T13:07:31.792Z,98033.16
2023-01-11T13:10:13.441Z,98025.44
2023-01-11T13:12:46.556Z,98029.28
2023-01-11T13:15:30.135Z,98026.75
2023-01-11T13:18:02.621Z,98042.38
2023-01-11T13:20:58.841Z,98038.91
2023-01-11T13:23:34.503Z,98032.75
2023-01-11T13:26:18.028Z,98027.59
2023-01-11T13:28:51.541Z,98036.00
2023-01-11T13:31:20.766Z,98041.09
2023-01-11T13:33:53.908Z,98033.41
2023-01-11T13:36:25.915Z,98041.41
2023-01-11T13:38:59.753Z,98037.75
2023-01-11T13:41:34.421Z,98042.16
2023-01-11T13:44:05.322Z,98046.25
2023-01-11T13:46:46.643Z,98049.13
2023-01-11T13:49:25.078Z,98063.63
2023-01-11T13:51:55.299Z,98065.19
2023-01-11T13:54:28.129Z,98068.16
2023-01-11T13:57:02.169Z,98073.41
2023-01-11T13:59:34.251Z,98080.84
2023-01-11T14:02:06.277Z,98089.00
2023-01-11T14:04:44.313Z,98097.31
2023-01-11T14:07:22.265Z,98102.78
2023-01-11T14:10:04.803Z,98104.56
2023-01-11T14:12:44.384Z,98103.16
2023-01-11T14:15:26.410Z,98115.06
2023-01-11T14:18:18.732Z,98121.88
2023-01-11T14:21:00.487Z,98133.41
2023-01-11T14:23:36.231Z,98142.81
2023-01-11T14:26:32.386Z,98145.59
2023-01-11T14:29:17.117Z,98140.06
2023-01-11T14:32:07.065Z,98157.44
2023-01-11T14:35:09.556Z,98138.06
2023-01-11T14:38:07.129Z,98154.94
2023-01-11T14:40:49.211Z,98155.75
2023-01-11T14:43:59.764Z,98152.28
2023-01-11T14:46:53.357Z,98158.97
2023-01-11T14:49:34.868Z,98163.63
2023-01-11T14:52:04.996Z,98168.06
2023-01-11T14:54:35.651Z,98180.03
2023-01-11T14:57:07.784Z,98177.59
2023-01-11T14:59:39.347Z,98181.69
2023-01-11T15:02:29.804Z,98191.72
2023-01-11T15:05:10.173Z,98193.38
2023-01-11T15:07:42.241Z,98195.34
2023-01-11T15:10:56.522Z,98194.94
2023-01-11T15:13:26.877Z,98205.09
2023-01-11T15:16:26.346Z,98203.06
2023-01-11T15:18:56.905Z,98201.84
2023-01-11T15:21:27.152Z,98205.72
2023-01-11T15:23:57.876Z,98206.41
2023-01-11T15:26:28.095Z,98215.66
2023-01-11T15:28:58.533Z,98221.09
2023-01-11T15:31:34.415Z,98226.03
2023-01-11T15:34:06.871Z,98226.00
2023-01-11T15:37:20.598Z,98236.53
2023-01-11T15:39:55.176Z,98228.91
2023-01-11T15:43:03.252Z,98240.44
2023-01-11T15:46:24.612Z,98235.63
2023-01-11T15:49:13.977Z,98245.31
2023-01-11T15:52:01.452Z,98262.28
2023-01-11T15:54:53.497Z,98257.28
2023-01-11T15:57:39.735Z,98270.50
2023-01-11T16:00:25.796Z,98275.94
2023-01-11T16:03:26.000Z,98273.03
2023-01-11T16:06:03.325Z,98286.81
2023-01-11T16:08:37.055Z,98285.44
2023-01-11T16:11:14.298Z,98297.81
2023-01-11T16:13:54.933Z,98298.94
2023-01-11T16:16:26.864Z,98301.66
2023-01-11T16:18:58.123Z,98306.75
2023-01-11T16:21:33.694Z,98316.03
2023-01-11T16:24:05.078Z,98318.56
2023-01-11T16:26:35.228Z,98321.16
2023-01-11T16:29:07.934Z,98337.75
2023-01-11T16:31:51.938Z,98346.13
2023-01-11T16:34:20.836Z,98346.19
2023-01-11T16:36:50.922Z,98347.94
2023-01-11T16:39:22.247Z,98355.13
2023-01-11T16:41:55.071Z,98358.41
2023-01-11T16:44:35.209Z,98359.28
2023-01-11T16:47:11.268Z,98369.03
2023-01-11T16:49:40.915Z,98348.19
2023-01-11T16:52:37.659Z,98372.53
2023-01-11T16:55:23.150Z,98395.69
2023-01-11T16:57:55.156Z,98378.50
2023-01-11T17:00:28.876Z,98381.09
2023-01-11T17:03:18.930Z,98386.03
2023-01-11T17:06:27.334Z,98390.63
2023-01-11T17:09:00.022Z,98386.81
2023-01-11T17:11:31.763Z,98389.78
2023-01-11T17:14:15.125Z,98400.34
2023-01-11T17:16:45.888Z,98401.13
2023-01-11T17:19:17.183Z,98407.34
2023-01-11T17:21:50.998Z,98418.69
2023-01-11T17:24:24.946Z,98418.69
2023-01-11T17:26:56.915Z,98418.75
2023-01-11T17:29:30.065Z,98430.19
2023-01-11T17:32:00.130Z,98427.69
2023-01-11T17:34:31.891Z,98426.59
2023-01-11T17:37:00.779Z,98441.53
2023-01-11T17:39:33.258Z,98445.69
2023-01-11T17:42:21.254Z,98457.47
2023-01-11T17:45:08.812Z,98462.34
2023-01-11T17:47:39.641Z,98474.91
2023-01-11T17:50:17.815Z,98486.81
2023-01-11T17:52:54.665Z,98497.91
2023-01-11T17:55:26.195Z,98486.91
2023-01-11T17:58:19.765Z,98488.09
2023-01-11T18:01:15.130Z,98510.00
2023-01-11T18:03:45.444Z,98488.75
2023-01-11T18:06:22.328Z,98507.34
2023-01-11T18:08:53.111Z,98517.19
2023-01-11T18:11:29.113Z,98506.53
2023-01-11T18:14:00.815Z,98506.91
2023-01-11T18:16:30.067Z,98516.13
2023-01-11T18:19:04.989Z,98519.38
2023-01-11T18:21:41.337Z,98506.31
2023-01-11T18:24:34.736Z,98497.59
2023-01-11T18:27:17.290Z,98508.34
2023-01-11T18:29:51.270Z,98500.97
2023-01-11T18:32:20.366Z,98501.97
2023-01-11T18:34:52.524Z,98502.72
2023-01-11T18:37:21.808Z,98500.72
2023-01-11T18:39:52.455Z,98506.59
2023-01-11T18:42:25.898Z,98505.66
2023-01-11T18:44:54.691Z,98512.75
2023-01-11T18:47:24.775Z,98510.69
2023-01-11T18:49:54.267Z,98511.56
2023-01-11T18:52:27.489Z,98508.22
2023-01-11T18:54:56.626Z,98515.41
2023-01-11T18:57:26.658Z,98511.34
2023-01-11T18:59:55.521Z,98515.13
2023-01-11T19:02:26.447Z,98520.09
2023-01-11T19:04:56.119Z,98529.69
2023-01-11T19:07:25.638Z,98531.56
2023-01-11T19:09:55.431Z,98531.63
2023-01-11T19:12:26.038Z,98523.94
2023-01-11T19:14:54.710Z,98526.50
2023-01-11T19:17:23.403Z,98536.75
2023-01-11T19:19:52.033Z,98542.81
2023-01-11T19:22:23.401Z,98540.31
2023-01-11T19:24:55.038Z,98553.06
2023-01-11T19:27:24.295Z,98553.09
2023-01-11T19:29:57.553Z,98556.63
2023-01-11T19:32:28.966Z,98567.78
2023-01-11T19:34:58.274Z,98560.13
2023-01-11T19:37:27.764Z,98572.16
2023-01-11T19:39:56.698Z,98579.03
2023-01-11T19:42:25.380Z,98577.38
2023-01-11T19:44:55.936Z,98588.53
2023-01-11T19:47:24.598Z,98600.47
2023-01-11T19:49:56.484Z,98603.63
2023-01-11T19:52:25.302Z,98588.16
2023-01-11T19:54:55.170Z,98592.63
2023-01-11T19:57:23.883Z,98585.66
2023-01-11T19:59:53.864Z,98584.66
2023-01-11T20:02:23.068Z,98577.31
2023-01-11T20:04:51.751Z,98570.69
2023-01-11T20:07:20.497Z,98567.25
2023-01-11T20:09:49.173Z,98551.94
2023-01-11T20:12:17.829Z,98558.75
2023-01-11T20:14:46.715Z,98556.41
2023-01-11T20:17:20.878Z,98560.66
2023-01-11T20:19:54.471Z,98563.31
2023-01-11T20:22:23.617Z,98566.03
2023-01-11T20:24:52.343Z,98572.91
2023-01-11T20:27:21.129Z,98578.03
2023-01-11T20:29:49.967Z,98580.81
2023-01-11T20:32:39.692Z,98580.91
2023-01-11T20:35:09.977Z,98587.03
2023-01-11T20:37:38.822Z,98587.00
2023-01-11T20:40:08.963Z,98590.47
2023-01-11T20:42:37.571Z,98589.75
2023-01-11T20:45:07.201Z,98593.13
2023-01-11T20:47:41.287Z,98584.69
2023-01-11T20:50:11.341Z,98594.19
2023-01-11T20:52:40.607Z,98587.31
2023-01-11T20:55:11.695Z,98589.09
2023-01-11T20:57:46.476Z,98590.22
2023-01-11T21:00:15.948Z,98608.25
2023-01-11T21:02:45.998Z,98607.66
2023-01-11T21:05:14.994Z,98607.66
2023-01-11T21:07:43.662Z,98603.50
2023-01-11T21:10:13.009Z,98600.13
2023-01-11T21:12:41.748Z,98608.75
2023-01-11T21:15:11.056Z,98612.28
2023-01-11T21:17:39.813Z,98620.75
2023-01-11T21:20:11.348Z,98624.03
2023-01-11T21:22:40.130Z,98615.53
2023-01-11T21:25:09.969Z,98621.34
2023-01-11T21:27:38.922Z,98618.91
2023-01-11T21:30:08.759Z,98615.59
2023-01-11T21:32:37.366Z,98611.47
2023-01-11T21:35:06.708Z,98606.47
2023-01-11T21:37:36.833Z,98606.72
2023-01-11T21:40:06.284Z,98602.47
2023-01-11T21:42:34.976Z,98601.81
2023-01-11T21:45:05.257Z,98598.59
2023-01-11T21:47:34.188Z,98604.66
2023-01-11T21:50:03.002Z,98598.81
2023-01-11T21:52:31.801Z,98604.81
2023-01-11T21:55:02.544Z,98595.59
2023-01-11T21:57:31.295Z,98597.34
2023-01-11T21:59:59.943Z,98593.38
2023-01-11T22:02:28.546Z,98595.88
2023-01-11T22:04:57.801Z,98591.81
2023-01-11T22:07:27.568Z,98585.03
2023-01-11T22:10:04.625Z,98590.16
2023-01-11T22:12:35.982Z,98580.88
2023-01-11T22:15:04.934Z,98577.41
2023-01-11T22:17:33.661Z,98590.34
2023-01-11T22:20:02.437Z,98586.13
2023-01-11T22:22:31.133Z,98604.06
2023-01-11T22:24:59.697Z,98598.88
2023-01-11T22:27:28.360Z,98606.50
2023-01-11T22:29:58.454Z,98608.97
2023-01-11T22:32:27.267Z,98598.81
2023-01-11T22:34:55.859Z,98604.75
2023-01-11T22:37:24.718Z,98599.63
2023-01-11T22:39:53.289Z,98603.94
2023-01-11T22:42:22.008Z,98612.50
2023-01-11T22:44:53.346Z,98615.06
2023-01-11T22:47:23.382Z,98618.53
2023-01-11T22:49:54.101Z,98610.97
2023-01-11T22:52:22.814Z,98606.78
2023-01-11T22:54:51.534Z,98613.63
2023-01-11T22:57:20.297Z,98604.28
2023-01-11T22:59:48.958Z,98603.31
2023-01-11T23:02:17.645Z,98619.56
2023-01-11T23:04:47.646Z,98620.38
2023-01-11T23:07:16.252Z,98621.78
2023-01-11T23:09:44.995Z,98623.56
2023-01-11T23:12:30.980Z,98619.81
2023-01-11T23:14:59.607Z,98617.28
2023-01-11T23:17:28.210Z,98618.25
2023-01-11T23:19:58.193Z,98623.53
2023-01-11T23:22:26.898Z,98611.00
2023-01-11T23:24:55.604Z,98614.44
2023-01-11T23:27:24.461Z,98626.47
2023-01-11T23:29:53.576Z,98613.81
2023-01-11T23:32:22.470Z,98614.75
2023-01-11T23:34:51.426Z,98601.16
2023-01-11T23:37:21.367Z,98599.50
2023-01-11T23:39:49.929Z,98597.00
2023-01-11T23:42:26.701Z,98596.94
2023-01-11T23:44:55.519Z,98601.34
2023-01-11T23:47:25.046Z,98604.81
2023-01-11T23:49:54.847Z,98609.94
2023-01-11T23:52:26.782Z,98603.09
2023-01-11T23:54:55.505Z,98609.06
2023-01-11T23:57:25.408Z,98614.22
2023-01-11T23:59:54.348Z,98623.63
